Time;durP1;ratioP1;P1;durP2;ratioP2;P2;SDS_P1;SDS_P2;PMS_P1;PMS_P2;Temp;Humidity;BMP_temperature;BMP_pressure;BME280_temperature;BME280_humidity;BME280_pressure;Samples;Min_cycle;Max_cycle;Signal;HPM_P1;HPM_P2
2022/03/02 00:00:37;;;;;;;10.02;4.72;;;;;;;;;;5960595;29;20050;-70
2022/03/02 00:03:44;;;;;;;9.77;4.47;;;;;;;;;;5959927;29;20128;-71
2022/03/02 00:06:47;;;;;;;11.15;5.55;;;;;;;;;;5960661;29;20058;-70
2022/03/02 00:09:50;;;;;;;13.23;4.93;;;;;;;;;;5960275;29;20061;-70
2022/03/02 00:12:55;;;;;;;13.88;4.70;;;;;;;;;;5960973;29;20054;-70
2022/03/02 00:15:58;;;;;;;14.48;4.88;;;;;;;;;;5961652;29;20392;-70
2022/03/02 00:19:01;;;;;;;11.52;4.43;;;;;;;;;;5959306;29;20064;-70
2022/03/02 00:22:04;;;;;;;13.35;4.97;;;;;;;;;;5961375;29;20078;-70
2022/03/02 00:25:08;;;;;;;11.65;4.72;;;;;;;;;;5961170;29;20058;-70
2022/03/02 00:28:15;;;;;;;11.82;4.95;;;;;;;;;;5960279;29;20055;-70
2022/03/02 00:31:18;;;;;;;11.10;4.55;;;;;;;;;;5961136;29;20406;-70
2022/03/02 00:34:22;;;;;;;15.10;5.68;;;;;;;;;;5960360;29;20138;-70
2022/03/02 00:37:25;;;;;;;10.73;4.57;;;;;;;;;;5961400;29;20062;-70
2022/03/02 00:40:31;;;;;;;9.90;4.65;;;;;;;;;;5959696;29;20062;-71
2022/03/02 00:43:35;;;;;;;11.05;4.75;;;;;;;;;;5960952;29;20066;-69
2022/03/02 00:46:38;;;;;;;14.13;5.55;;;;;;;;;;5960649;29;20524;-70
2022/03/02 00:49:44;;;;;;;11.13;4.93;;;;;;;;;;5961030;29;20491;-70
2022/03/02 00:52:47;;;;;;;10.68;5.00;;;;;;;;;;5960939;29;20124;-70
2022/03/02 00:55:50;;;;;;;11.02;5.93;;;;;;;;;;5958852;29;20456;-70
2022/03/02 00:58:55;;;;;;;12.35;5.05;;;;;;;;;;5961300;29;20172;-70
2022/03/02 01:01:58;;;;;;;13.02;4.72;;;;;;;;;;5960550;29;20058;-70
2022/03/02 01:05:01;;;;;;;9.73;4.47;;;;;;;;;;5960160;29;20055;-70
2022/03/02 01:08:05;;;;;;;11.25;4.93;;;;;;;;;;5960449;29;20067;-70
2022/03/02 01:11:08;;;;;;;10.85;4.60;;;;;;;;;;5959330;29;20506;-70
2022/03/02 01:14:13;;;;;;;9.75;4.35;;;;;;;;;;5959237;29;20058;-70
2022/03/02 01:17:16;;;;;;;12.23;4.68;;;;;;;;;;5958684;29;20057;-70
2022/03/02 01:20:20;;;;;;;10.68;4.28;;;;;;;;;;5959769;29;20047;-70
2022/03/02 01:23:23;;;;;;;11.40;4.40;;;;;;;;;;5960536;29;20142;-70
2022/03/02 01:26:28;;;;;;;7.85;3.75;;;;;;;;;;5958541;29;20055;-71
2022/03/02 01:29:34;;;;;;;10.57;4.87;;;;;;;;;;5959635;29;20054;-70
2022/03/02 01:32:37;;;;;;;12.98;4.57;;;;;;;;;;5964532;29;20050;-71
2022/03/02 01:35:40;;;;;;;11.10;4.32;;;;;;;;;;5964743;29;20054;-70
2022/03/02 01:38:43;;;;;;;10.02;4.78;;;;;;;;;;5963299;29;20051;-70
2022/03/02 01:41:46;;;;;;;12.68;4.53;;;;;;;;;;5964171;29;20216;-70
2022/03/02 01:44:51;;;;;;;12.90;4.72;;;;;;;;;;5964940;29;20070;-70
2022/03/02 01:47:54;;;;;;;13.43;4.93;;;;;;;;;;5964043;29;20057;-70
2022/03/02 01:50:57;;;;;;;8.60;4.50;;;;;;;;;;5963735;29;20058;-70
2022/03/02 01:54:01;;;;;;;11.77;4.75;;;;;;;;;;5964275;29;20418;-70
2022/03/02 01:57:04;;;;;;;10.88;4.72;;;;;;;;;;5964228;29;20078;-70
2022/03/02 02:00:10;;;;;;;11.93;5.10;;;;;;;;;;5964444;29;20188;-70
2022/03/02 02:03:13;;;;;;;10.07;4.28;;;;;;;;;;5963179;29;20518;-70
2022/03/02 02:06:16;;;;;;;11.02;4.75;;;;;;;;;;5963180;29;20078;-70
2022/03/02 02:09:20;;;;;;;8.70;4.50;;;;;;;;;;5963653;29;20058;-70
2022/03/02 02:12:22;;;;;;;9.45;4.95;;;;;;;;;;5963410;29;20402;-70
2022/03/02 02:15:27;;;;;;;8.98;4.57;;;;;;;;;;5962669;29;20085;-71
2022/03/02 02:18:30;;;;;;;10.50;4.72;;;;;;;;;;5962289;29;20051;-70
2022/03/02 02:21:37;;;;;;;11.82;5.57;;;;;;;;;;5964062;29;20414;-71
2022/03/02 02:24:40;;;;;;;10.90;3.90;;;;;;;;;;5963861;29;20053;-70
2022/03/02 02:27:44;;;;;;;11.10;4.65;;;;;;;;;;5963853;29;20107;-70
2022/03/02 02:30:50;;;;;;;12.80;5.32;;;;;;;;;;5962136;29;20058;-70
2022/03/02 02:33:53;;;;;;;10.93;4.53;;;;;;;;;;5962718;29;20050;-71
2022/03/02 02:37:00;;;;;;;13.93;5.40;;;;;;;;;;5962453;29;20051;-70
2022/03/02 02:40:05;;;;;;;13.20;4.93;;;;;;;;;;5962302;29;20499;-71
2022/03/02 02:43:08;;;;;;;12.48;4.65;;;;;;;;;;5962862;29;20126;-71
2022/03/02 02:46:14;;;;;;;11.25;4.78;;;;;;;;;;5962297;29;20059;-71
2022/03/02 02:49:17;;;;;;;8.05;4.03;;;;;;;;;;5961958;29;20081;-71
2022/03/02 02:52:22;;;;;;;12.55;5.25;;;;;;;;;;5961832;29;20051;-71
2022/03/02 02:55:26;;;;;;;10.07;4.63;;;;;;;;;;5962230;29;20058;-71
2022/03/02 02:58:29;;;;;;;12.50;4.38;;;;;;;;;;5963273;29;20418;-70
2022/03/02 03:01:32;;;;;;;13.10;5.00;;;;;;;;;;5961204;29;20175;-71
2022/03/02 03:04:37;;;;;;;11.70;4.50;;;;;;;;;;5963600;29;20039;-71
2022/03/02 03:07:42;;;;;;;10.52;4.50;;;;;;;;;;5962730;29;20074;-71
2022/03/02 03:10:47;;;;;;;9.35;4.22;;;;;;;;;;5962774;29;20167;-71
2022/03/02 03:13:50;;;;;;;10.63;4.57;;;;;;;;;;5962750;29;20180;-71
2022/03/02 03:16:53;;;;;;;9.10;4.20;;;;;;;;;;5963003;29;20098;-71
2022/03/02 03:19:58;;;;;;;9.63;4.28;;;;;;;;;;5961608;29;20079;-71
2022/03/02 03:23:04;;;;;;;9.55;4.20;;;;;;;;;;5960704;29;20499;-71
2022/03/02 03:26:07;;;;;;;8.88;4.15;;;;;;;;;;5963067;29;20482;-71
2022/03/02 03:29:11;;;;;;;10.68;4.13;;;;;;;;;;5961053;29;20046;-71
2022/03/02 03:32:13;;;;;;;10.80;4.32;;;;;;;;;;5960761;29;20410;-71
2022/03/02 03:35:17;;;;;;;10.35;4.55;;;;;;;;;;5960963;29;20050;-71
2022/03/02 03:38:22;;;;;;;;;;;;;;;;;;5961711;29;20535;-72
2022/03/02 03:41:28;;;;;;;10.32;4.22;;;;;;;;;;5962146;29;19932;-72
2022/03/02 03:44:30;;;;;;;8.70;4.20;;;;;;;;;;5961623;29;20047;-71
2022/03/02 03:47:34;;;;;;;12.57;4.50;;;;;;;;;;5961317;29;20050;-71
2022/03/02 03:50:37;;;;;;;12.30;4.40;;;;;;;;;;5960823;29;20505;-71
2022/03/02 03:53:40;;;;;;;9.68;4.10;;;;;;;;;;5961239;29;20061;-70
2022/03/02 03:56:44;;;;;;;15.18;4.95;;;;;;;;;;5962097;29;20054;-71
2022/03/02 03:59:48;;;;;;;10.52;4.30;;;;;;;;;;5962101;29;20095;-71
2022/03/02 04:02:50;;;;;;;9.82;4.60;;;;;;;;;;5960355;29;20422;-71
2022/03/02 04:05:54;;;;;;;10.40;3.83;;;;;;;;;;5961335;29;20503;-71
2022/03/02 04:08:57;;;;;;;10.35;4.43;;;;;;;;;;5961814;29;20063;-71
2022/03/02 04:12:02;;;;;;;10.18;4.63;;;;;;;;;;5961875;29;20050;-70
2022/03/02 04:15:06;;;;;;;9.35;4.57;;;;;;;;;;5959516;29;20192;-70
2022/03/02 04:18:11;;;;;;;;;;;;;;;;;;5961193;29;20055;-70
2022/03/02 04:21:15;;;;;;;8.30;3.70;;;;;;;;;;5961377;29;20241;-70
2022/03/02 04:24:18;;;;;;;11.85;4.30;;;;;;;;;;5961095;29;20499;-71
2022/03/02 04:27:22;;;;;;;13.05;4.18;;;;;;;;;;5959891;29;20051;-70
2022/03/02 04:30:27;;;;;;;17.58;6.43;;;;;;;;;;5961479;29;20051;-70
2022/03/02 04:33:33;;;;;;;20.92;7.65;;;;;;;;;;5961468;29;20513;-70
2022/03/02 04:36:36;;;;;;;18.40;8.13;;;;;;;;;;5960459;29;20047;-70
2022/03/02 04:39:40;;;;;;;13.48;5.88;;;;;;;;;;5961529;29;20188;-69
2022/03/02 04:42:44;;;;;;;14.73;5.10;;;;;;;;;;5959658;29;20092;-70
2022/03/02 04:45:47;;;;;;;10.25;4.80;;;;;;;;;;5960492;29;20106;-70
2022/03/02 04:48:50;;;;;;;16.15;4.90;;;;;;;;;;5959976;29;20091;-70
2022/03/02 04:51:53;;;;;;;10.82;4.63;;;;;;;;;;5959717;29;20057;-69
2022/03/02 04:55:09;;;;;;;11.77;4.53;;;;;;;;;;5960840;29;20046;-70
2022/03/02 04:58:14;;;;;;;12.45;4.40;;;;;;;;;;5960321;29;20223;-69
2022/03/02 05:01:17;;;;;;;8.30;4.07;;;;;;;;;;5961397;29;20077;-69
2022/03/02 05:04:20;;;;;;;13.07;4.55;;;;;;;;;;5960874;29;20055;-69
2022/03/02 05:07:23;;;;;;;10.85;4.20;;;;;;;;;;5959699;29;20069;-69
2022/03/02 05:10:28;;;;;;;13.48;4.25;;;;;;;;;;5960620;29;20055;-70
2022/03/02 05:13:34;;;;;;;11.88;4.20;;;;;;;;;;5960771;29;20418;-69
2022/03/02 05:16:38;;;;;;;9.88;4.25;;;;;;;;;;5960655;29;20051;-69
2022/03/02 05:19:41;;;;;;;15.40;4.90;;;;;;;;;;5960007;29;20426;-69
2022/03/02 05:22:44;;;;;;;10.25;4.55;;;;;;;;;;5959674;29;20054;-69
2022/03/02 05:25:47;;;;;;;12.90;4.50;;;;;;;;;;5959405;29;20058;-69
2022/03/02 05:28:54;;;;;;;14.03;4.83;;;;;;;;;;5958631;29;20051;-70
2022/03/02 05:31:57;;;;;;;10.02;4.30;;;;;;;;;;5960739;29;20054;-69
2022/03/02 05:35:00;;;;;;;11.20;3.97;;;;;;;;;;5960330;29;20051;-69
2022/03/02 05:38:04;;;;;;;10.82;4.40;;;;;;;;;;5960043;29;20047;-69
2022/03/02 05:41:07;;;;;;;14.85;5.65;;;;;;;;;;5959999;29;20066;-70
2022/03/02 05:44:12;;;;;;;13.95;4.53;;;;;;;;;;5960597;29;20058;-69
2022/03/02 05:47:15;;;;;;;10.68;4.95;;;;;;;;;;5958858;29;20216;-70
2022/03/02 05:50:19;;;;;;;10.95;4.00;;;;;;;;;;5959287;29;20418;-70
2022/03/02 05:53:22;;;;;;;13.43;4.90;;;;;;;;;;5960485;29;20484;-70
2022/03/02 05:56:25;;;;;;;16.02;4.43;;;;;;;;;;5958716;29;20443;-70
2022/03/02 05:59:30;;;;;;;11.02;4.57;;;;;;;;;;5959708;29;20057;-70
2022/03/02 06:02:33;;;;;;;11.82;4.80;;;;;;;;;;5958796;29;20057;-70
2022/03/02 06:05:36;;;;;;;13.38;4.85;;;;;;;;;;5958783;29;20054;-71
2022/03/02 06:08:39;;;;;;;18.15;5.38;;;;;;;;;;5958496;29;20063;-70
2022/03/02 06:11:43;;;;;;;12.93;5.30;;;;;;;;;;5957907;29;20075;-70
2022/03/02 06:14:48;;;;;;;26.52;10.25;;;;;;;;;;5959137;29;20059;-71
2022/03/02 06:17:51;;;;;;;51.55;17.75;;;;;;;;;;5960947;29;20069;-70
2022/03/02 06:21:00;;;;;;;32.40;10.32;;;;;;;;;;5963425;29;20062;-70
2022/03/02 06:24:03;;;;;;;15.73;6.38;;;;;;;;;;5963952;29;20065;-71
2022/03/02 06:27:06;;;;;;;13.35;6.18;;;;;;;;;;5964119;29;20077;-70
2022/03/02 06:30:14;;;;;;;23.45;9.73;;;;;;;;;;5962309;29;20047;-71
2022/03/02 06:33:20;;;;;;;21.15;6.88;;;;;;;;;;5962161;29;20042;-70
2022/03/02 06:36:29;;;;;;;20.23;7.15;;;;;;;;;;5964031;29;20050;-71
2022/03/02 06:39:33;;;;;;;13.45;5.30;;;;;;;;;;5961467;29;20130;-71
2022/03/02 06:42:38;;;;;;;;;;;;;;;;;;5962299;29;20047;-71
2022/03/02 06:45:48;;;;;;;16.83;7.00;;;;;;;;;;5963482;29;19925;-70
2022/03/02 06:48:57;;;;;;;16.77;6.75;;;;;;;;;;5963394;29;20050;-71
2022/03/02 06:52:01;;;;;;;13.88;6.10;;;;;;;;;;5961965;29;20426;-70
2022/03/02 06:55:06;;;;;;;;;;;;;;;;;;5963109;29;20104;-71
2022/03/02 06:58:14;;;;;;;16.02;6.40;;;;;;;;;;5963232;29;19929;-71
2022/03/02 07:01:22;;;;;;;16.70;6.00;;;;;;;;;;5961705;29;20054;-70
2022/03/02 07:04:27;;;;;;;12.82;5.13;;;;;;;;;;5961306;29;20055;-71
2022/03/02 07:07:30;;;;;;;11.27;5.07;;;;;;;;;;5962626;29;20151;-71
2022/03/02 07:10:34;;;;;;;12.77;5.32;;;;;;;;;;5961627;29;20050;-71
2022/03/02 07:13:37;;;;;;;17.38;5.20;;;;;;;;;;5961166;29;20530;-70
2022/03/02 07:16:43;;;;;;;16.05;5.45;;;;;;;;;;5962030;29;20046;-70
2022/03/02 07:19:46;;;;;;;15.07;6.10;;;;;;;;;;5963292;29;20523;-70
2022/03/02 07:22:51;;;;;;;14.60;6.47;;;;;;;;;;5962534;29;20058;-71
2022/03/02 07:25:57;;;;;;;14.48;5.22;;;;;;;;;;5960993;29;20054;-71
2022/03/02 07:29:01;;;;;;;14.70;5.07;;;;;;;;;;5961438;29;20058;-70
2022/03/02 07:32:07;;;;;;;10.73;5.28;;;;;;;;;;5962645;29;20055;-70
2022/03/02 07:35:13;;;;;;;12.73;5.78;;;;;;;;;;5961177;29;20051;-70
2022/03/02 07:38:16;;;;;;;13.23;4.78;;;;;;;;;;5960403;29;20134;-71
2022/03/02 07:41:19;;;;;;;12.70;5.07;;;;;;;;;;5961228;29;20051;-70
2022/03/02 07:44:22;;;;;;;28.02;9.35;;;;;;;;;;5962075;29;20047;-70
2022/03/02 07:47:33;;;;;;;33.75;9.50;;;;;;;;;;5960343;29;20050;-70
2022/03/02 07:50:36;;;;;;;48.10;14.27;;;;;;;;;;5962038;29;20495;-70
2022/03/02 07:53:41;;;;;;;26.70;10.00;;;;;;;;;;5961948;29;20054;-70
2022/03/02 07:56:46;;;;;;;20.37;7.60;;;;;;;;;;5960568;29;20058;-70
2022/03/02 07:59:50;;;;;;;12.07;5.73;;;;;;;;;;5960580;29;20063;-70
2022/03/02 08:02:58;;;;;;;14.73;5.80;;;;;;;;;;5960784;29;20145;-70
2022/03/02 08:06:01;;;;;;;12.38;4.70;;;;;;;;;;5961787;29;20127;-69
2022/03/02 08:09:05;;;;;;;12.10;5.75;;;;;;;;;;5960694;29;20047;-71
2022/03/02 08:12:11;;;;;;;12.82;5.60;;;;;;;;;;5961762;29;20432;-70
2022/03/02 08:15:15;;;;;;;10.02;4.93;;;;;;;;;;5960169;29;20062;-70
2022/03/02 08:18:19;;;;;;;12.10;5.10;;;;;;;;;;5961193;29;20254;-71
2022/03/02 08:21:30;;;;;;;10.10;4.80;;;;;;;;;;5959621;29;20127;-70
2022/03/02 08:24:41;;;;;;;10.35;4.65;;;;;;;;;;5957736;29;20047;-71
2022/03/02 08:27:44;;;;;;;12.25;4.35;;;;;;;;;;5956309;29;20404;-71
2022/03/02 08:30:50;;;;;;;12.23;5.10;;;;;;;;;;5957410;29;20405;-71
2022/03/02 08:33:55;;;;;;;8.93;4.27;;;;;;;;;;5957254;29;20256;-71
2022/03/02 08:37:02;;;;;;;9.75;4.60;;;;;;;;;;5958314;29;20051;-69
2022/03/02 08:40:06;;;;;;;12.35;4.40;;;;;;;;;;5960876;29;20133;-70
2022/03/02 08:43:09;;;;;;;11.73;5.03;;;;;;;;;;5960919;29;20055;-72
2022/03/02 08:46:15;;;;;;;8.70;4.10;;;;;;;;;;5959944;29;20099;-69
2022/03/02 08:49:25;;;;;;;12.18;4.85;;;;;;;;;;5960980;29;20080;-70
2022/03/02 08:52:29;;;;;;;10.30;4.72;;;;;;;;;;5960550;29;20136;-70
2022/03/02 08:55:33;;;;;;;12.52;4.47;;;;;;;;;;5961341;29;20057;-69
2022/03/02 08:58:37;;;;;;;12.32;5.30;;;;;;;;;;5960384;29;20414;-70
2022/03/02 09:01:44;;;;;;;11.95;5.50;;;;;;;;;;5959480;29;20051;-71
2022/03/02 09:04:49;;;;;;;13.43;4.85;;;;;;;;;;5960216;29;20053;-70
2022/03/02 09:07:55;;;;;;;11.90;4.45;;;;;;;;;;5960833;29;20070;-72
2022/03/02 09:10:58;;;;;;;11.55;5.32;;;;;;;;;;5960468;29;20418;-71
2022/03/02 09:14:01;;;;;;;10.88;4.45;;;;;;;;;;5958680;29;20184;-71
2022/03/02 09:17:05;;;;;;;9.40;4.03;;;;;;;;;;5960707;29;20058;-72
2022/03/02 09:20:10;;;;;;;10.27;4.35;;;;;;;;;;5959059;29;20100;-70
2022/03/02 09:23:13;;;;;;;9.98;4.38;;;;;;;;;;5960244;29;20074;-69
2022/03/02 09:26:18;;;;;;;9.63;4.60;;;;;;;;;;5958917;29;20054;-70
2022/03/02 09:29:22;;;;;;;9.15;3.85;;;;;;;;;;5960679;29;20050;-70
2022/03/02 09:32:25;;;;;;;9.90;4.28;;;;;;;;;;5960515;29;20051;-71
2022/03/02 09:35:30;;;;;;;12.18;4.68;;;;;;;;;;5959849;29;20585;-71
2022/03/02 09:38:34;;;;;;;10.98;4.60;;;;;;;;;;5960586;29;20046;-72
2022/03/02 09:41:41;;;;;;;11.43;5.05;;;;;;;;;;5960239;29;20051;-69
2022/03/02 09:44:45;;;;;;;9.80;4.18;;;;;;;;;;5958646;29;20088;-70
2022/03/02 09:47:52;;;;;;;14.05;4.70;;;;;;;;;;5958899;29;20116;-72
2022/03/02 09:50:58;;;;;;;7.80;4.03;;;;;;;;;;5960430;29;20058;-72
2022/03/02 09:54:03;;;;;;;11.27;4.47;;;;;;;;;;5964187;29;20487;-71
2022/03/02 09:57:07;;;;;;;13.32;5.40;;;;;;;;;;5964011;29;20054;-71
2022/03/02 10:00:12;;;;;;;11.27;5.45;;;;;;;;;;5964751;29;20055;-71
2022/03/02 10:03:18;;;;;;;11.70;4.80;;;;;;;;;;5962853;29;20047;-71
2022/03/02 10:06:23;;;;;;;9.25;4.63;;;;;;;;;;5962738;29;20051;-71
2022/03/02 10:09:28;;;;;;;12.90;5.20;;;;;;;;;;5962701;29;20042;-70
2022/03/02 10:12:31;;;;;;;11.02;5.00;;;;;;;;;;5964288;29;20051;-70
2022/03/02 10:15:38;;;;;;;14.63;5.80;;;;;;;;;;5962739;29;20483;-71
2022/03/02 10:18:42;;;;;;;12.57;5.30;;;;;;;;;;5963527;29;20082;-70
2022/03/02 10:21:52;;;;;;;10.00;5.45;;;;;;;;;;5963487;29;20043;-70
2022/03/02 10:25:01;;;;;;;10.68;4.90;;;;;;;;;;5963935;29;20051;-70
2022/03/02 10:28:06;;;;;;;11.10;5.05;;;;;;;;;;5963556;29;20051;-71
2022/03/02 10:31:27;;;;;;;9.32;5.30;;;;;;;;;;5964111;29;20055;-70
2022/03/02 10:34:32;;;;;;;10.73;5.03;;;;;;;;;;5961044;29;20063;-71
2022/03/02 10:37:38;;;;;;;11.57;5.70;;;;;;;;;;5963554;29;20047;-71
2022/03/02 10:40:41;;;;;;;;;;;;;;;;;;5962244;29;20111;-72
2022/03/02 10:43:48;;;;;;;15.57;5.63;;;;;;;;;;5963766;29;19925;-72
2022/03/02 10:46:55;;;;;;;9.70;4.97;;;;;;;;;;5962583;29;20055;-71
2022/03/02 10:50:00;;;;;;;10.88;4.80;;;;;;;;;;5963429;29;20054;-71
2022/03/02 10:53:07;;;;;;;12.82;5.65;;;;;;;;;;5963304;29;20054;-71
2022/03/02 10:56:12;;;;;;;11.57;5.55;;;;;;;;;;5962509;29;20059;-71
2022/03/02 10:59:20;;;;;;;13.18;5.30;;;;;;;;;;5961796;29;20487;-70
2022/03/02 11:02:25;;;;;;;9.63;4.72;;;;;;;;;;5962387;29;20050;-71
2022/03/02 11:05:29;;;;;;;10.13;5.07;;;;;;;;;;5962704;29;20088;-71
2022/03/02 11:08:35;;;;;;;9.63;5.22;;;;;;;;;;5961407;29;20059;-71
2022/03/02 11:11:38;;;;;;;11.80;5.50;;;;;;;;;;5961550;29;20480;-70
2022/03/02 11:14:53;;;;;;;10.23;5.15;;;;;;;;;;5961168;29;20509;-69
2022/03/02 11:17:58;;;;;;;10.00;5.03;;;;;;;;;;5962088;29;20047;-69
2022/03/02 11:21:05;;;;;;;10.13;5.43;;;;;;;;;;5962498;29;20069;-69
2022/03/02 11:24:10;;;;;;;12.40;5.72;;;;;;;;;;5962340;29;20088;-72
2022/03/02 11:27:26;;;;;;;11.90;6.40;;;;;;;;;;5962847;29;20047;-72
2022/03/02 11:30:29;;;;;;;13.40;6.30;;;;;;;;;;5961334;29;20054;-72
2022/03/02 11:33:32;;;;;;;10.93;5.40;;;;;;;;;;5962126;29;20050;-70
2022/03/02 11:36:36;;;;;;;10.27;5.25;;;;;;;;;;5960620;29;20458;-71
2022/03/02 11:39:44;;;;;;;14.38;6.53;;;;;;;;;;5962650;29;20188;-71
2022/03/02 11:42:47;;;;;;;;;;;;;;;;;;5961407;29;20442;-71
2022/03/02 11:45:51;;;;;;;13.63;5.95;;;;;;;;;;5961732;29;19928;-71
2022/03/02 11:48:55;;;;;;;13.40;6.47;;;;;;;;;;5962084;29;20047;-70
2022/03/02 11:52:05;;;;;;;11.60;5.90;;;;;;;;;;5960886;29;20047;-70
2022/03/02 11:55:11;;;;;;;11.85;5.57;;;;;;;;;;5961833;29;20434;-70
2022/03/02 11:58:14;;;;;;;9.18;5.70;;;;;;;;;;5961315;29;20055;-71
2022/03/02 12:01:18;;;;;;;14.48;6.43;;;;;;;;;;5962188;29;20054;-71
2022/03/02 12:04:29;;;;;;;10.55;5.22;;;;;;;;;;5961569;29;20054;-70
2022/03/02 12:07:36;;;;;;;13.23;6.00;;;;;;;;;;5961184;29;20059;-71
2022/03/02 12:10:42;;;;;;;12.50;5.88;;;;;;;;;;5961641;29;20051;-71
2022/03/02 12:13:45;;;;;;;;;;;;;;;;;;5962537;29;20062;-71
2022/03/02 12:16:51;;;;;;;10.93;5.30;;;;;;;;;;5961328;29;19925;-71
2022/03/02 12:19:54;;;;;;;10.93;5.70;;;;;;;;;;5961027;29;20043;-70
2022/03/02 12:23:00;;;;;;;18.60;6.63;;;;;;;;;;5961733;29;20055;-71
2022/03/02 12:26:05;;;;;;;16.15;6.55;;;;;;;;;;5959800;29;20053;-71
2022/03/02 12:29:10;;;;;;;10.90;6.22;;;;;;;;;;5959504;29;20054;-71
2022/03/02 12:32:15;;;;;;;13.90;6.67;;;;;;;;;;5961345;29;20058;-70
2022/03/02 12:35:22;;;;;;;;;;;;;;;;;;5961808;29;20128;-71
2022/03/02 12:38:25;;;;;;;15.68;6.32;;;;;;;;;;5959577;29;20346;-71
2022/03/02 12:41:32;;;;;;;15.27;6.68;;;;;;;;;;5959255;29;20054;-70
2022/03/02 12:44:39;;;;;;;16.00;6.45;;;;;;;;;;5961270;29;20495;-71
2022/03/02 12:47:43;;;;;;;13.85;6.07;;;;;;;;;;5960750;29;20411;-71
2022/03/02 12:50:46;;;;;;;10.10;5.88;;;;;;;;;;5959190;29;20487;-71
2022/03/02 12:53:49;;;;;;;12.85;6.72;;;;;;;;;;5960794;29;20103;-71
2022/03/02 12:56:54;;;;;;;12.20;6.47;;;;;;;;;;5960943;29;20055;-70
2022/03/02 12:59:57;;;;;;;13.27;6.55;;;;;;;;;;5959211;29;20177;-70
2022/03/02 13:03:00;;;;;;;15.85;6.70;;;;;;;;;;5960059;29;20047;-70
2022/03/02 13:06:09;;;;;;;13.30;6.63;;;;;;;;;;5959699;29;20505;-70
2022/03/02 13:09:14;;;;;;;15.07;6.20;;;;;;;;;;5959264;29;20051;-70
2022/03/02 13:12:36;;;;;;;12.45;6.75;;;;;;;;;;5960171;29;20078;-70
2022/03/02 13:15:41;;;;;;;13.75;6.88;;;;;;;;;;5959108;29;20062;-69
2022/03/02 13:18:44;;;;;;;;;;;;;;;;;;5959951;29;20367;-70
2022/03/02 13:21:58;;;;;;;11.52;6.30;;;;;;;;;;5960227;29;19925;-70
2022/03/02 13:25:05;;;;;;;12.07;6.20;;;;;;;;;;5960052;29;20066;-72
2022/03/02 13:28:10;;;;;;;14.10;6.80;;;;;;;;;;5962750;29;20062;-71
2022/03/02 13:31:17;;;;;;;12.18;5.95;;;;;;;;;;5963760;29;20107;-71
2022/03/02 13:34:24;;;;;;;11.63;6.07;;;;;;;;;;5964547;29;20491;-71
2022/03/02 13:37:53;;;;;;;10.63;5.55;;;;;;;;;;5964583;29;20403;-71
2022/03/02 13:40:59;;;;;;;11.68;6.57;;;;;;;;;;5964832;29;20046;-71
2022/03/02 13:44:17;;;;;;;12.00;5.75;;;;;;;;;;5963809;29;20126;-71
2022/03/02 13:47:28;;;;;;;12.82;7.65;;;;;;;;;;5964825;29;20055;-71
2022/03/02 13:50:48;;;;;;;12.00;5.95;;;;;;;;;;5964178;29;20046;-71
2022/03/02 13:53:58;;;;;;;12.52;6.05;;;;;;;;;;5963552;29;20058;-71
2022/03/02 13:57:03;;;;;;;10.43;5.80;;;;;;;;;;5964453;29;20081;-71
2022/03/02 14:00:26;;;;;;;15.05;7.38;;;;;;;;;;5962774;29;20084;-71
2022/03/02 14:03:33;;;;;;;11.38;6.70;;;;;;;;;;5962764;29;20137;-71
2022/03/02 14:06:40;;;;;;;12.23;6.68;;;;;;;;;;5964524;29;20055;-71
2022/03/02 14:09:43;;;;;;;14.90;6.47;;;;;;;;;;5964522;29;20055;-71
2022/03/02 14:12:49;;;;;;;11.60;6.65;;;;;;;;;;5963638;29;20051;-72
2022/03/02 14:15:52;;;;;;;13.60;6.30;;;;;;;;;;5964108;29;20055;-71
2022/03/02 14:19:03;;;;;;;13.52;7.05;;;;;;;;;;5962577;29;20066;-71
2022/03/02 14:22:07;;;;;;;12.95;7.30;;;;;;;;;;5962382;29;20082;-70
2022/03/02 14:25:12;;;;;;;13.93;6.78;;;;;;;;;;5964181;29;20418;-70
2022/03/02 14:28:17;;;;;;;11.90;6.80;;;;;;;;;;5962811;29;20164;-71
2022/03/02 14:31:21;;;;;;;16.77;8.10;;;;;;;;;;5962350;29;20047;-71
2022/03/02 14:34:26;;;;;;;13.68;6.80;;;;;;;;;;5963268;29;20184;-71
2022/03/02 14:37:33;;;;;;;12.77;6.70;;;;;;;;;;5962954;29;20591;-69
2022/03/02 14:40:36;;;;;;;14.57;7.22;;;;;;;;;;5963058;29;20047;-69
2022/03/02 14:43:39;;;;;;;14.43;7.15;;;;;;;;;;5962031;29;20487;-71
2022/03/02 14:46:42;;;;;;;13.25;6.90;;;;;;;;;;5961866;29;20507;-69
2022/03/02 14:49:46;;;;;;;12.07;6.72;;;;;;;;;;5963606;29;20123;-69
2022/03/02 14:52:50;;;;;;;15.00;6.65;;;;;;;;;;5963226;29;20060;-71
2022/03/02 14:55:55;;;;;;;13.00;7.18;;;;;;;;;;5963109;29;20115;-70
2022/03/02 14:58:58;;;;;;;17.23;7.05;;;;;;;;;;5962045;29;20263;-70
2022/03/02 15:02:04;;;;;;;16.27;7.78;;;;;;;;;;5962793;29;20104;-70
2022/03/02 15:05:11;;;;;;;14.40;7.25;;;;;;;;;;5961577;29;20062;-72
2022/03/02 15:08:14;;;;;;;13.63;6.68;;;;;;;;;;5962825;29;20066;-70
2022/03/02 15:11:19;;;;;;;12.55;6.78;;;;;;;;;;5961602;29;20055;-70
2022/03/02 15:17:48;;;;;;;16.58;7.32;;;;;;;;;;5962480;29;20047;-70
2022/03/02 15:20:53;;;;;;;13.75;6.90;;;;;;;;;;5962668;29;20055;-70
2022/03/02 15:23:56;;;;;;;15.18;6.85;;;;;;;;;;5961408;29;20185;-70
2022/03/02 15:26:59;;;;;;;11.30;6.80;;;;;;;;;;5962255;29;20421;-70
2022/03/02 15:30:13;;;;;;;17.17;7.97;;;;;;;;;;5960974;29;20066;-72
2022/03/02 15:33:18;;;;;;;17.08;7.72;;;;;;;;;;5961580;29;20554;-70
2022/03/02 15:36:25;;;;;;;12.98;7.50;;;;;;;;;;5960893;29;20282;-70
2022/03/02 15:39:37;;;;;;;16.90;7.85;;;;;;;;;;5960763;29;20055;-70
2022/03/02 15:42:44;;;;;;;14.43;7.63;;;;;;;;;;5961967;29;20527;-70
2022/03/02 15:45:51;;;;;;;20.58;7.60;;;;;;;;;;5961172;29;20050;-70
2022/03/02 15:48:58;;;;;;;15.13;8.43;;;;;;;;;;5960252;29;20058;-70
2022/03/02 15:52:06;;;;;;;17.85;7.68;;;;;;;;;;5961713;29;20059;-71
2022/03/02 15:55:09;;;;;;;15.02;7.82;;;;;;;;;;5962229;29;20179;-69
2022/03/02 15:58:13;;;;;;;17.05;8.18;;;;;;;;;;5961813;29;20057;-69
2022/03/02 16:01:20;;;;;;;19.42;8.88;;;;;;;;;;5961309;29;20062;-70
2022/03/02 16:04:26;;;;;;;19.40;8.75;;;;;;;;;;5961544;29;20094;-70
2022/03/02 16:07:31;;;;;;;16.00;7.93;;;;;;;;;;5960673;29;20051;-70
2022/03/02 16:10:36;;;;;;;15.70;8.00;;;;;;;;;;5960117;29;20058;-71
2022/03/02 16:13:40;;;;;;;19.02;9.25;;;;;;;;;;5961436;29;20046;-71
2022/03/02 16:16:48;;;;;;;16.10;8.13;;;;;;;;;;5961479;29;20080;-70
2022/03/02 16:19:51;;;;;;;20.27;8.88;;;;;;;;;;5959796;29;20077;-69
2022/03/02 16:23:08;;;;;;;18.98;8.50;;;;;;;;;;5959692;29;20487;-69
2022/03/02 16:26:11;;;;;;;15.23;8.52;;;;;;;;;;5959695;29;20051;-69
2022/03/02 16:29:15;;;;;;;17.67;8.60;;;;;;;;;;5961531;29;20127;-69
2022/03/02 16:32:17;;;;;;;20.70;8.75;;;;;;;;;;5961308;29;20149;-71
2022/03/02 16:35:23;;;;;;;15.95;8.82;;;;;;;;;;5960714;29;20057;-72
2022/03/02 16:38:28;;;;;;;19.33;9.32;;;;;;;;;;5960042;29;20054;-71
2022/03/02 16:41:31;;;;;;;18.80;8.60;;;;;;;;;;5959564;29;20938;-71
2022/03/02 16:44:36;;;;;;;16.30;7.85;;;;;;;;;;5959426;29;20290;-71
2022/03/02 16:47:40;;;;;;;18.92;8.68;;;;;;;;;;5960886;29;20055;-70
2022/03/02 16:50:43;;;;;;;19.05;8.68;;;;;;;;;;5959661;29;20066;-69
2022/03/02 16:53:48;;;;;;;17.73;8.18;;;;;;;;;;5960488;29;20058;-70
2022/03/02 16:56:51;;;;;;;19.55;8.35;;;;;;;;;;5960401;29;20250;-70
2022/03/02 16:59:57;;;;;;;26.67;9.18;;;;;;;;;;5959282;29;20605;-70
2022/03/02 17:03:02;;;;;;;18.58;8.73;;;;;;;;;;5959975;29;20039;-71
2022/03/02 17:09:25;;;;;;;16.02;8.00;;;;;;;;;;5958282;29;20112;-71
2022/03/02 17:12:29;;;;;;;16.00;8.00;;;;;;;;;;5959241;29;20050;-70
2022/03/02 17:15:32;;;;;;;19.05;8.30;;;;;;;;;;5959877;29;20055;-70
2022/03/02 17:18:36;;;;;;;20.63;8.05;;;;;;;;;;5958731;29;20046;-70
2022/03/02 17:21:38;;;;;;;19.05;8.98;;;;;;;;;;5959286;29;20408;-71
2022/03/02 17:24:45;;;;;;;18.17;8.82;;;;;;;;;;5958993;29;20046;-71
2022/03/02 17:27:48;;;;;;;16.90;8.35;;;;;;;;;;5958871;29;20624;-70
2022/03/02 17:30:51;;;;;;;18.00;8.13;;;;;;;;;;5960306;29;20049;-71
2022/03/02 17:33:54;;;;;;;20.70;9.07;;;;;;;;;;5960123;29;20062;-70
2022/03/02 17:36:57;;;;;;;18.83;8.40;;;;;;;;;;5959891;29;20050;-71
2022/03/02 17:40:03;;;;;;;16.88;8.20;;;;;;;;;;5959977;29;20073;-71
2022/03/02 17:43:06;;;;;;;15.38;7.45;;;;;;;;;;5959264;29;20042;-70
2022/03/02 17:46:09;;;;;;;15.20;7.22;;;;;;;;;;5959981;29;20580;-70
2022/03/02 17:49:12;;;;;;;17.95;8.10;;;;;;;;;;5959777;29;20057;-70
2022/03/02 17:52:15;;;;;;;14.98;7.68;;;;;;;;;;5958774;29;20397;-72
2022/03/02 17:55:20;;;;;;;18.05;8.65;;;;;;;;;;5958741;29;20055;-69
2022/03/02 17:58:23;;;;;;;17.52;8.43;;;;;;;;;;5958489;29;20050;-69
2022/03/02 18:01:26;;;;;;;17.90;8.63;;;;;;;;;;5959667;29;20057;-70
2022/03/02 18:04:29;;;;;;;23.75;9.18;;;;;;;;;;5958822;29;20054;-70
2022/03/02 18:07:32;;;;;;;17.60;8.00;;;;;;;;;;5958150;29;20069;-71
2022/03/02 18:10:38;;;;;;;18.35;6.88;;;;;;;;;;5960200;29;20062;-70
2022/03/02 18:13:42;;;;;;;18.73;8.15;;;;;;;;;;5961148;29;20042;-71
2022/03/02 18:16:45;;;;;;;17.13;7.35;;;;;;;;;;5963988;29;20062;-68
2022/03/02 18:19:49;;;;;;;22.27;7.93;;;;;;;;;;5963679;29;20051;-69
2022/03/02 18:22:54;;;;;;;17.70;7.53;;;;;;;;;;5962734;29;20165;-70